createdAt,value
2023-04-16T00:00:31.908Z,79.03
2023-04-16T00:02:38.731Z,78.66
2023-04-16T00:04:30.616Z,78.73
2023-04-16T00:06:23.087Z,79.05
2023-04-16T00:08:14.790Z,78.93
2023-04-16T00:10:08.605Z,78.86
2023-04-16T00:12:00.811Z,78.90
2023-04-16T00:13:52.383Z,78.94
2023-04-16T00:15:43.820Z,78.83
2023-04-16T00:17:35.265Z,78.74
2023-04-16T00:19:26.970Z,78.96
2023-04-16T00:21:18.497Z,79.73
2023-04-16T00:23:10.140Z,80.24
2023-04-16T00:25:01.865Z,80.03
2023-04-16T00:26:53.651Z,79.67
2023-04-16T00:28:45.624Z,79.56
2023-04-16T00:30:37.187Z,79.57
2023-04-16T00:32:30.362Z,79.39
2023-04-16T00:34:22.259Z,79.46
2023-04-16T00:36:13.786Z,79.42
2023-04-16T00:38:05.540Z,79.43
2023-04-16T00:39:57.516Z,79.29
2023-04-16T00:41:49.428Z,79.53
2023-04-16T00:43:41.230Z,79.71
2023-04-16T00:45:33.021Z,79.97
2023-04-16T00:47:25.548Z,79.93
2023-04-16T00:49:17.524Z,79.98
2023-04-16T00:51:09.916Z,80.11
2023-04-16T00:53:02.522Z,80.25
2023-04-16T00:54:54.332Z,80.09
2023-04-16T00:56:46.847Z,79.96
2023-04-16T00:58:38.926Z,80.02
2023-04-16T01:00:30.742Z,80.12
2023-04-16T01:02:22.880Z,80.27
2023-04-16T01:04:14.502Z,80.28
2023-04-16T01:06:07.576Z,80.30
2023-04-16T01:08:00.903Z,80.43
2023-04-16T01:09:52.655Z,80.58
2023-04-16T01:11:44.133Z,80.82
2023-04-16T01:13:39.559Z,80.71
2023-04-16T01:15:31.689Z,80.72
2023-04-16T01:17:23.253Z,80.36
2023-04-16T01:19:14.972Z,80.45
2023-04-16T01:21:09.938Z,80.72
2023-04-16T01:23:11.725Z,80.62
2023-04-16T01:25:04.220Z,80.76
2023-04-16T01:26:58.111Z,80.81
2023-04-16T01:28:49.919Z,80.78
2023-04-16T01:30:41.764Z,80.71
2023-04-16T01:32:33.488Z,80.70
2023-04-16T01:34:25.316Z,80.74
2023-04-16T01:36:17.258Z,80.63
2023-04-16T01:38:10.157Z,80.69
2023-04-16T01:40:01.601Z,80.57
2023-04-16T01:41:53.354Z,80.66
2023-04-16T01:43:45.181Z,80.68
2023-04-16T01:45:36.768Z,80.62
2023-04-16T01:47:28.595Z,80.66
2023-04-16T01:49:20.669Z,80.87
2023-04-16T01:51:12.633Z,80.74
2023-04-16T01:53:05.319Z,80.88
2023-04-16T01:54:56.806Z,80.92
2023-04-16T01:56:48.798Z,81.21
2023-04-16T01:58:42.924Z,81.31
2023-04-16T02:00:34.778Z,81.29
2023-04-16T02:02:29.224Z,81.34
2023-04-16T02:04:21.196Z,80.83
2023-04-16T02:06:13.078Z,80.65
2023-04-16T02:08:05.092Z,80.62
2023-04-16T02:09:58.179Z,80.49
2023-04-16T02:11:49.384Z,80.45
2023-04-16T02:13:41.206Z,80.93
2023-04-16T02:15:33.220Z,80.90
2023-04-16T02:17:24.987Z,80.75
2023-04-16T02:19:16.765Z,80.89
2023-04-16T02:21:08.550Z,81.31
2023-04-16T02:23:00.497Z,81.61
2023-04-16T02:24:52.220Z,81.38
2023-04-16T02:26:43.735Z,81.53
2023-04-16T02:28:35.707Z,81.22
2023-04-16T02:30:27.129Z,80.73
2023-04-16T02:32:18.528Z,80.61
2023-04-16T02:34:10.381Z,80.69
2023-04-16T02:36:02.280Z,80.67
2023-04-16T02:37:54.300Z,80.50
2023-04-16T02:39:47.588Z,80.56
2023-04-16T02:41:38.923Z,80.50
2023-04-16T02:43:31.325Z,80.43
2023-04-16T02:45:23.134Z,80.55
2023-04-16T02:47:14.788Z,80.50
2023-04-16T02:49:06.077Z,80.03
2023-04-16T02:50:57.204Z,80.08
2023-04-16T02:52:48.791Z,79.99
2023-04-16T02:54:40.401Z,80.01
2023-04-16T02:56:31.993Z,80.11
2023-04-16T02:58:24.703Z,80.45
2023-04-16T03:00:15.949Z,80.63
2023-04-16T03:02:07.722Z,80.71
2023-04-16T03:03:59.801Z,80.82
2023-04-16T03:05:51.533Z,80.84
2023-04-16T03:07:43.229Z,80.57
2023-04-16T03:09:37.232Z,80.63
2023-04-16T03:11:29.088Z,80.76
2023-04-16T03:13:21.088Z,80.83
2023-04-16T03:15:12.602Z,81.01
2023-04-16T03:17:04.745Z,81.06
2023-04-16T03:18:56.339Z,80.78
2023-04-16T03:20:52.299Z,80.86
2023-04-16T03:22:43.900Z,80.72
2023-04-16T03:24:35.674Z,80.38
2023-04-16T03:26:27.264Z,80.43
2023-04-16T03:28:19.076Z,80.64
2023-04-16T03:30:11.805Z,80.79
2023-04-16T03:32:03.645Z,81.08
2023-04-16T03:33:56.114Z,81.42
2023-04-16T03:35:55.520Z,81.66
2023-04-16T03:37:47.184Z,82.06
2023-04-16T03:39:38.557Z,82.26
2023-04-16T03:41:30.262Z,82.48
2023-04-16T03:43:22.110Z,82.47
2023-04-16T03:45:13.661Z,82.63
2023-04-16T03:47:05.478Z,82.70
2023-04-16T03:48:57.143Z,82.83
2023-04-16T03:50:49.141Z,82.80
2023-04-16T03:52:41.423Z,83.06
2023-04-16T03:54:32.923Z,83.09
2023-04-16T03:56:24.824Z,83.33
2023-04-16T03:58:17.040Z,83.36
2023-04-16T04:00:09.409Z,83.48
2023-04-16T04:02:01.635Z,83.48
2023-04-16T04:03:53.303Z,83.53
2023-04-16T04:05:44.817Z,83.58
2023-04-16T04:07:36.392Z,83.60
2023-04-16T04:09:28.109Z,83.57
2023-04-16T04:11:19.869Z,83.67
2023-04-16T04:13:11.445Z,83.78
2023-04-16T04:15:03.416Z,83.81
2023-04-16T04:16:54.938Z,84.00
2023-04-16T04:18:46.938Z,83.92
2023-04-16T04:20:41.389Z,84.04
2023-04-16T04:22:33.125Z,84.00
2023-04-16T04:24:25.111Z,84.18
2023-04-16T04:26:17.131Z,84.24
2023-04-16T04:28:08.627Z,84.34
2023-04-16T04:30:00.460Z,84.64
2023-04-16T04:31:52.490Z,84.62
2023-04-16T04:33:44.468Z,84.77
2023-04-16T04:35:36.013Z,84.85
2023-04-16T04:37:27.602Z,84.79
2023-04-16T04:39:21.646Z,84.85
2023-04-16T04:41:13.320Z,84.91
2023-04-16T04:43:05.304Z,85.00
2023-04-16T04:44:56.951Z,84.98
2023-04-16T04:46:48.775Z,84.99
2023-04-16T04:48:40.381Z,85.01
2023-04-16T04:50:32.212Z,85.12
2023-04-16T04:52:24.270Z,85.13
2023-04-16T04:54:16.158Z,85.17
2023-04-16T04:56:12.214Z,85.19
2023-04-16T04:58:05.887Z,85.09
2023-04-16T04:59:57.441Z,85.07
2023-04-16T05:01:49.261Z,85.14
2023-04-16T05:03:41.105Z,85.43
2023-04-16T05:05:32.725Z,85.52
2023-04-16T05:07:25.256Z,85.62
2023-04-16T05:09:17.512Z,85.96
2023-04-16T05:11:09.054Z,85.90
2023-04-16T05:13:01.318Z,85.89
2023-04-16T05:14:53.055Z,85.89
2023-04-16T05:16:44.874Z,85.96
2023-04-16T05:18:36.418Z,85.86
2023-04-16T05:20:28.137Z,85.93
2023-04-16T05:22:20.036Z,85.97
2023-04-16T05:24:13.613Z,85.88
2023-04-16T05:26:06.539Z,85.92
2023-04-16T05:27:58.393Z,86.00
2023-04-16T05:29:49.910Z,85.81
2023-04-16T05:31:41.863Z,85.91
2023-04-16T05:33:33.539Z,85.87
2023-04-16T05:35:25.237Z,85.49
2023-04-16T05:37:16.847Z,85.62
2023-04-16T05:39:08.881Z,85.38
2023-04-16T05:41:01.056Z,85.19
2023-04-16T05:42:53.021Z,85.08
2023-04-16T05:44:45.320Z,84.99
2023-04-16T05:46:37.101Z,84.75
2023-04-16T05:48:29.377Z,84.65
2023-04-16T05:50:21.183Z,84.41
2023-04-16T05:52:13.038Z,84.36
2023-04-16T05:54:04.628Z,84.10
2023-04-16T05:55:56.238Z,84.07
2023-04-16T05:57:48.245Z,84.22
2023-04-16T05:59:40.006Z,84.04
2023-04-16T06:01:34.303Z,83.79
2023-04-16T06:03:26.036Z,84.21
2023-04-16T06:05:17.528Z,84.03
2023-04-16T06:07:09.549Z,83.95
2023-04-16T06:09:01.528Z,83.94
2023-04-16T06:10:53.299Z,83.86
2023-04-16T06:12:44.936Z,83.57
2023-04-16T06:14:36.934Z,83.30
2023-04-16T06:16:28.645Z,83.44
2023-04-16T06:18:19.898Z,83.58
2023-04-16T06:20:12.330Z,83.64
2023-04-16T06:22:06.417Z,83.73
2023-04-16T06:23:58.223Z,83.54
2023-04-16T06:25:49.792Z,83.45
2023-04-16T06:27:41.479Z,83.22
2023-04-16T06:29:40.683Z,83.13
2023-04-16T06:31:34.190Z,83.23
2023-04-16T06:33:25.912Z,83.21
2023-04-16T06:35:20.264Z,83.14
2023-04-16T06:37:12.111Z,83.05
2023-04-16T06:39:04.024Z,82.85
2023-04-16T06:40:56.686Z,82.54
2023-04-16T06:42:48.087Z,82.83
2023-04-16T06:44:39.595Z,82.75
2023-04-16T06:46:31.153Z,82.80
2023-04-16T06:48:22.842Z,82.84
2023-04-16T06:50:14.381Z,83.02
2023-04-16T06:52:06.250Z,83.12
2023-04-16T06:53:58.013Z,83.16
2023-04-16T06:55:50.344Z,83.30
2023-04-16T06:57:42.448Z,83.40
2023-04-16T06:59:34.201Z,83.43
2023-04-16T07:01:26.060Z,83.63
2023-04-16T07:03:18.070Z,83.76
2023-04-16T07:05:09.683Z,83.65
2023-04-16T07:07:01.529Z,83.27
2023-04-16T07:08:53.605Z,83.10
2023-04-16T07:10:45.718Z,83.04
2023-04-16T07:12:37.567Z,83.02
2023-04-16T07:14:29.171Z,82.95
2023-04-16T07:16:21.285Z,83.02
2023-04-16T07:18:13.017Z,82.75
2023-04-16T07:20:06.190Z,82.54
2023-04-16T07:21:59.449Z,82.47
2023-04-16T07:23:50.855Z,81.96
2023-04-16T07:25:42.711Z,82.66
2023-04-16T07:27:33.972Z,82.44
2023-04-16T07:29:25.541Z,82.43
2023-04-16T07:31:17.700Z,82.13
2023-04-16T07:33:09.408Z,81.97
2023-04-16T07:35:00.881Z,81.93
2023-04-16T07:36:52.474Z,81.63
2023-04-16T07:38:44.161Z,81.42
2023-04-16T07:40:36.996Z,80.90
2023-04-16T07:42:28.815Z,80.64
2023-04-16T07:44:20.674Z,80.38
2023-04-16T07:46:12.343Z,80.54
2023-04-16T07:48:05.335Z,80.31
2023-04-16T07:49:57.231Z,79.36
2023-04-16T07:51:48.814Z,79.07
2023-04-16T07:53:40.629Z,78.46
2023-04-16T07:55:32.281Z,78.04
2023-04-16T07:57:23.956Z,77.46
2023-04-16T07:59:22.573Z,75.92
2023-04-16T08:01:15.702Z,75.35
2023-04-16T08:03:07.454Z,75.72
2023-04-16T08:05:01.367Z,75.98
2023-04-16T08:06:53.521Z,76.22
2023-04-16T08:08:45.374Z,75.71
2023-04-16T08:10:37.195Z,73.66
2023-04-16T08:12:29.524Z,72.62
2023-04-16T08:14:21.566Z,72.08
2023-04-16T08:16:13.442Z,71.76
2023-04-16T08:18:13.003Z,69.42
2023-04-16T08:20:05.908Z,69.33
2023-04-16T08:21:57.850Z,68.38
2023-04-16T08:23:49.266Z,67.65
2023-04-16T08:25:40.993Z,66.94
2023-04-16T08:27:33.055Z,66.35
2023-04-16T08:29:26.410Z,65.64
2023-04-16T08:31:18.313Z,64.78
2023-04-16T08:33:09.988Z,63.71
2023-04-16T08:35:01.848Z,63.40
2023-04-16T08:36:53.413Z,62.33
2023-04-16T08:38:45.072Z,63.33
2023-04-16T08:40:40.846Z,61.71
2023-04-16T08:42:40.834Z,59.90
2023-04-16T08:44:34.884Z,60.34
2023-04-16T08:46:27.025Z,58.24
2023-04-16T08:48:21.600Z,56.08
2023-04-16T08:50:16.623Z,56.88
2023-04-16T08:52:10.459Z,55.00
2023-04-16T08:54:09.470Z,55.52
2023-04-16T08:56:04.949Z,54.06
2023-04-16T08:58:00.393Z,53.96
2023-04-16T08:59:52.144Z,53.57
2023-04-16T09:01:44.272Z,50.91
2023-04-16T09:03:36.966Z,50.64
2023-04-16T09:05:29.680Z,51.14
2023-04-16T09:07:21.043Z,50.75
2023-04-16T09:09:12.814Z,51.06
2023-04-16T09:11:04.734Z,51.34
2023-04-16T09:12:57.355Z,50.09
2023-04-16T09:14:50.728Z,49.88
2023-04-16T09:16:42.515Z,48.49
2023-04-16T09:18:34.418Z,48.47
2023-04-16T09:20:26.162Z,46.08
2023-04-16T09:22:18.232Z,46.35
2023-04-16T09:24:10.086Z,45.52
2023-04-16T09:26:02.377Z,46.63
2023-04-16T09:27:54.167Z,48.64
2023-04-16T09:29:46.294Z,48.92
2023-04-16T09:31:38.133Z,47.86
2023-04-16T09:33:30.065Z,47.69
2023-04-16T09:35:21.799Z,47.93
2023-04-16T09:37:19.379Z,47.03
2023-04-16T09:39:22.951Z,46.90
2023-04-16T09:41:16.628Z,46.41
2023-04-16T09:43:16.417Z,46.31
2023-04-16T09:45:08.290Z,45.16
2023-04-16T09:47:06.736Z,46.30
2023-04-16T09:48:58.687Z,45.29
2023-04-16T09:50:51.802Z,46.15
2023-04-16T09:52:45.913Z,45.16
2023-04-16T09:54:37.226Z,45.35
2023-04-16T09:56:30.468Z,44.76
2023-04-16T09:58:24.569Z,44.98
2023-04-16T10:00:19.082Z,45.47
2023-04-16T10:02:15.430Z,45.07
2023-04-16T10:04:08.793Z,44.87
2023-04-16T10:06:06.771Z,45.46
2023-04-16T10:08:02.325Z,45.42
2023-04-16T10:09:55.920Z,43.04
2023-04-16T10:11:49.798Z,43.32
2023-04-16T10:13:41.613Z,42.20
2023-04-16T10:15:33.636Z,42.24
2023-04-16T10:17:27.433Z,41.08
2023-04-16T10:19:19.838Z,41.18
2023-04-16T10:21:12.943Z,42.14
2023-04-16T10:23:04.558Z,41.16
2023-04-16T10:24:56.286Z,40.31
2023-04-16T10:26:50.059Z,38.41
2023-04-16T10:28:41.766Z,40.45
2023-04-16T10:30:33.781Z,40.42
2023-04-16T10:32:28.812Z,38.13
2023-04-16T10:34:21.128Z,39.40
2023-04-16T10:36:17.512Z,39.19
2023-04-16T10:38:28.370Z,39.43
2023-04-16T10:40:27.598Z,39.00
2023-04-16T10:42:19.413Z,38.48
2023-04-16T10:44:11.064Z,38.99
2023-04-16T10:46:21.251Z,38.98
2023-04-16T10:48:15.400Z,37.78
2023-04-16T10:50:16.601Z,38.91
2023-04-16T10:52:17.476Z,37.06
2023-04-16T10:54:09.286Z,38.72
2023-04-16T10:56:04.738Z,36.16
2023-04-16T10:57:56.467Z,36.25
2023-04-16T10:59:48.951Z,36.41
2023-04-16T11:01:45.506Z,36.19
2023-04-16T11:03:37.376Z,36.01
2023-04-16T11:05:46.853Z,37.38
2023-04-16T11:07:49.320Z,35.27
2023-04-16T11:10:05.492Z,36.80
2023-04-16T11:11:57.429Z,35.41
2023-04-16T11:13:49.291Z,36.17
2023-04-16T11:15:41.191Z,38.44
2023-04-16T11:17:37.912Z,37.22
2023-04-16T11:19:29.664Z,37.27
2023-04-16T11:21:22.160Z,38.43
2023-04-16T11:23:13.992Z,38.52
2023-04-16T11:25:06.221Z,38.11
2023-04-16T11:26:57.827Z,38.77
2023-04-16T11:28:49.726Z,38.08
2023-04-16T11:30:41.735Z,37.12
2023-04-16T11:32:34.777Z,38.60
2023-04-16T11:34:26.597Z,37.38
2023-04-16T11:36:18.903Z,39.15
2023-04-16T11:38:10.530Z,40.77
2023-04-16T11:40:06.667Z,40.80
2023-04-16T11:41:58.447Z,39.87
2023-04-16T11:43:50.388Z,39.87
2023-04-16T11:45:56.370Z,40.25
2023-04-16T11:47:53.362Z,39.70
2023-04-16T11:49:45.242Z,40.79
2023-04-16T11:51:45.252Z,41.39
2023-04-16T11:53:37.159Z,40.40
2023-04-16T11:55:28.881Z,40.03
2023-04-16T11:57:27.971Z,39.63
2023-04-16T11:59:25.575Z,40.31
2023-04-16T12:01:20.469Z,40.56
2023-04-16T12:03:12.512Z,41.42
2023-04-16T12:05:05.462Z,41.32
2023-04-16T12:07:11.903Z,41.53
2023-04-16T12:09:23.254Z,41.17
2023-04-16T12:11:15.208Z,41.17
2023-04-16T12:13:12.693Z,41.37
2023-04-16T12:15:05.126Z,41.26
2023-04-16T12:16:57.407Z,41.80
2023-04-16T12:19:05.444Z,42.30
2023-04-16T12:20:57.020Z,41.52
2023-04-16T12:22:52.867Z,41.58
2023-04-16T12:24:44.492Z,42.20
2023-04-16T12:26:43.725Z,42.17
2023-04-16T12:28:39.599Z,43.40
2023-04-16T12:30:31.734Z,42.33
2023-04-16T12:32:23.644Z,44.03
2023-04-16T12:34:15.832Z,43.40
2023-04-16T12:36:20.067Z,43.19
2023-04-16T12:38:12.288Z,43.32
2023-04-16T12:40:07.295Z,43.07
2023-04-16T12:41:59.144Z,43.30
2023-04-16T12:43:50.914Z,44.52
2023-04-16T12:45:42.551Z,44.72
2023-04-16T12:47:34.203Z,45.32
2023-04-16T12:49:25.864Z,45.65
2023-04-16T12:51:17.190Z,45.53
2023-04-16T12:53:09.180Z,45.35
2023-04-16T12:55:02.709Z,45.78
2023-04-16T12:56:54.602Z,45.59
2023-04-16T12:58:46.431Z,45.79
2023-04-16T13:00:38.464Z,46.11
2023-04-16T13:02:30.057Z,45.24
2023-04-16T13:04:24.268Z,45.22
2023-04-16T13:06:17.277Z,45.35
2023-04-16T13:08:08.717Z,46.37
2023-04-16T13:10:00.971Z,45.50
2023-04-16T13:11:52.622Z,46.21
2023-04-16T13:13:44.544Z,46.21
2023-04-16T13:15:36.484Z,46.21
2023-04-16T13:17:28.131Z,46.68
2023-04-16T13:19:20.031Z,45.54
2023-04-16T13:21:14.216Z,45.71
2023-04-16T13:23:07.278Z,45.87
2023-04-16T13:24:59.085Z,45.31
2023-04-16T13:26:52.695Z,45.58
2023-04-16T13:28:44.256Z,45.33
2023-04-16T13:30:36.150Z,45.58
2023-04-16T13:32:27.942Z,45.28
2023-04-16T13:34:20.024Z,45.64
2023-04-16T13:36:12.047Z,46.41
2023-04-16T13:38:04.946Z,45.86
2023-04-16T13:39:57.004Z,45.69
2023-04-16T13:41:49.202Z,46.08
2023-04-16T13:43:41.095Z,46.14
2023-04-16T13:45:33.380Z,47.13
2023-04-16T13:47:24.703Z,46.14
2023-04-16T13:49:16.387Z,47.42
2023-04-16T13:51:08.590Z,46.86
2023-04-16T13:52:59.873Z,46.82
2023-04-16T13:54:51.565Z,47.63
2023-04-16T13:56:43.260Z,46.56
2023-04-16T13:58:35.131Z,45.61
2023-04-16T14:00:27.496Z,45.38
2023-04-16T14:02:21.281Z,44.21
2023-04-16T14:04:13.110Z,43.53
2023-04-16T14:06:05.712Z,43.32
2023-04-16T14:07:57.627Z,43.24
2023-04-16T14:09:48.948Z,43.09
2023-04-16T14:11:40.854Z,43.24
2023-04-16T14:13:32.585Z,43.57
2023-04-16T14:15:26.736Z,43.06
2023-04-16T14:17:18.193Z,43.97
2023-04-16T14:19:10.075Z,44.29
2023-04-16T14:21:02.245Z,43.66
2023-04-16T14:22:53.865Z,43.08
2023-04-16T14:24:45.899Z,43.39
2023-04-16T14:26:37.673Z,43.03
2023-04-16T14:28:29.264Z,43.52
2023-04-16T14:30:21.018Z,44.23
2023-04-16T14:32:13.015Z,44.84
2023-04-16T14:34:04.795Z,45.47
2023-04-16T14:35:56.420Z,45.22
2023-04-16T14:37:48.194Z,44.84
2023-04-16T14:39:39.977Z,43.35
2023-04-16T14:41:31.901Z,44.26
2023-04-16T14:43:24.745Z,44.90
2023-04-16T14:45:16.268Z,43.48
2023-04-16T14:47:08.758Z,42.94
2023-04-16T14:49:01.388Z,43.19
2023-04-16T14:50:53.799Z,41.46
2023-04-16T14:52:45.998Z,42.24
2023-04-16T14:54:37.963Z,41.70
2023-04-16T14:56:29.336Z,41.48
2023-04-16T14:58:22.095Z,40.91
2023-04-16T15:00:18.848Z,41.33
2023-04-16T15:02:10.815Z,40.71
2023-04-16T15:04:03.265Z,41.16
2023-04-16T15:05:55.843Z,41.74
2023-04-16T15:07:47.593Z,41.82
2023-04-16T15:09:39.376Z,41.78
2023-04-16T15:11:31.342Z,42.33
2023-04-16T15:13:23.255Z,42.46
2023-04-16T15:15:14.993Z,43.03
2023-04-16T15:17:06.506Z,43.49
2023-04-16T15:18:58.924Z,42.55
2023-04-16T15:20:51.666Z,43.28
2023-04-16T15:22:43.281Z,43.99
2023-04-16T15:24:34.944Z,43.42
2023-04-16T15:26:26.280Z,43.72
2023-04-16T15:28:17.527Z,43.99
2023-04-16T15:30:10.054Z,43.76
2023-04-16T15:32:02.194Z,42.86
2023-04-16T15:33:54.941Z,43.85
2023-04-16T15:35:46.930Z,43.05
2023-04-16T15:37:39.012Z,43.97
2023-04-16T15:39:31.737Z,44.35
2023-04-16T15:41:23.547Z,43.83
2023-04-16T15:43:16.079Z,44.37
2023-04-16T15:45:07.601Z,44.91
2023-04-16T15:47:00.204Z,44.40
2023-04-16T15:48:51.656Z,43.01
2023-04-16T15:50:43.190Z,42.83
2023-04-16T15:52:36.480Z,43.48
2023-04-16T15:54:29.598Z,43.56
2023-04-16T15:56:21.508Z,43.53
2023-04-16T15:58:13.400Z,44.85
2023-04-16T16:00:13.565Z,43.93
2023-04-16T16:02:06.330Z,43.56
2023-04-16T16:03:58.004Z,43.79
2023-04-16T16:05:49.959Z,44.06
2023-04-16T16:07:43.030Z,43.50
2023-04-16T16:09:36.493Z,44.15
2023-04-16T16:11:28.278Z,43.86
2023-04-16T16:13:20.994Z,43.84
2023-04-16T16:15:13.032Z,44.40
2023-04-16T16:17:05.174Z,44.49
2023-04-16T16:18:56.833Z,44.56
2023-04-16T16:20:49.006Z,44.86
2023-04-16T16:22:42.027Z,44.95
2023-04-16T16:24:33.841Z,44.65
2023-04-16T16:26:25.260Z,44.60
2023-04-16T16:28:17.283Z,45.32
2023-04-16T16:30:09.777Z,45.77
2023-04-16T16:32:01.441Z,45.60
2023-04-16T16:33:53.023Z,45.49
2023-04-16T16:35:44.365Z,45.94
2023-04-16T16:37:38.362Z,46.56
2023-04-16T16:39:29.878Z,46.32
2023-04-16T16:41:21.938Z,46.61
2023-04-16T16:43:14.260Z,47.41
2023-04-16T16:45:06.673Z,47.81
2023-04-16T16:46:58.593Z,47.45
2023-04-16T16:48:50.502Z,45.94
2023-04-16T16:50:42.504Z,46.16
2023-04-16T16:52:34.324Z,46.15
2023-04-16T16:54:26.243Z,46.51
2023-04-16T16:56:17.894Z,48.11
2023-04-16T16:58:09.828Z,50.96
2023-04-16T17:00:01.370Z,52.20
2023-04-16T17:01:53.046Z,53.42
2023-04-16T17:03:44.853Z,54.53
2023-04-16T17:05:37.076Z,54.79
2023-04-16T17:07:29.913Z,55.31
2023-04-16T17:09:22.321Z,55.71
2023-04-16T17:13:37.657Z,57.63
2023-04-16T17:15:29.347Z,58.28
2023-04-16T17:17:20.625Z,58.92
2023-04-16T17:19:12.911Z,59.50
2023-04-16T17:21:04.319Z,60.03
2023-04-16T17:22:55.769Z,60.57
2023-04-16T17:24:47.337Z,61.07
2023-04-16T17:26:41.257Z,61.73
2023-04-16T17:28:32.880Z,62.11
2023-04-16T17:30:26.139Z,62.38
2023-04-16T17:32:17.997Z,62.37
2023-04-16T17:34:10.192Z,62.22
2023-04-16T17:36:02.045Z,62.14
2023-04-16T17:37:53.594Z,62.30
2023-04-16T17:39:45.179Z,62.54
